Time;durP1;ratioP1;P1;durP2;ratioP2;P2;SDS_P1;SDS_P2;PMS_P1;PMS_P2;Temp;Humidity;BMP_temperature;BMP_pressure;BME280_temperature;BME280_humidity;BME280_pressure;Samples;Min_cycle;Max_cycle;Signal;HPM_P1;HPM_P2
2022/07/29 00:00:58;;;;;;;3.42;1.70;;;;;;;16.99;59.83;101571.38;5025611;28;20540;-67
2022/07/29 00:03:24;;;;;;;3.65;1.73;;;;;;;17.03;60.54;101569.22;5025939;28;20120;-67
2022/07/29 00:05:49;;;;;;;2.47;2.05;;;;;;;17.00;59.79;101573.09;5027131;28;20098;-66
2022/07/29 00:08:15;;;;;;;4.85;1.88;;;;;;;16.94;60.00;101573.66;5028127;28;20124;-70
2022/07/29 00:10:41;;;;;;;4.28;2.13;;;;;;;16.91;59.92;101573.91;5049429;28;20485;-66
2022/07/29 00:13:07;;;;;;;3.25;1.77;;;;;;;16.90;61.84;101571.31;5049792;28;20083;-66
2022/07/29 00:15:32;;;;;;;3.70;1.70;;;;;;;16.86;61.47;101565.19;5031385;28;20444;-66
2022/07/29 00:17:57;;;;;;;2.20;1.70;;;;;;;16.86;60.54;101576.19;5029039;28;20140;-69
2022/07/29 00:20:23;;;;;;;4.35;1.77;;;;;;;16.89;62.04;101567.69;5029501;28;20527;-68
2022/07/29 00:22:48;;;;;;;2.83;1.17;;;;;;;16.93;63.06;101568.31;5044827;28;20033;-66
2022/07/29 00:25:14;;;;;;;5.03;1.50;;;;;;;16.98;62.76;101569.63;5029239;28;20072;-67
2022/07/29 00:27:39;;;;;;;3.75;1.52;;;;;;;17.01;62.63;101554.72;5027005;28;20478;-70
2022/07/29 00:30:06;;;;;;;5.82;1.88;;;;;;;17.02;64.00;101559.22;5027214;28;20523;-67
2022/07/29 00:32:32;;;;;;;4.20;2.20;;;;;;;17.02;62.52;101559.22;5027176;28;20063;-68
2022/07/29 00:37:41;;;;;;;4.47;2.42;;;;;;;17.05;63.40;101559.81;5049040;28;20120;-67
2022/07/29 00:40:07;;;;;;;3.42;1.90;;;;;;;17.09;63.15;101565.94;5043441;28;20183;-67
2022/07/29 00:42:47;;;;;;;3.20;1.70;;;;;;;17.11;62.38;101571.28;5036287;28;20190;-67
2022/07/29 00:45:13;;;;;;;2.97;1.80;;;;;;;17.10;62.81;101575.91;5033663;28;20048;-67
2022/07/29 00:47:39;;;;;;;6.05;1.95;;;;;;;17.07;63.70;101584.44;5026303;28;20025;-67
2022/07/29 00:50:06;;;;;;;3.47;1.65;;;;;;;17.09;63.49;101587.94;5028393;28;20163;-68
2022/07/29 00:52:33;;;;;;;2.35;1.70;;;;;;;17.13;62.92;101594.91;5044500;28;20032;-68
2022/07/29 00:54:58;;;;;;;4.15;1.88;;;;;;;17.11;63.64;101593.28;5029183;28;20452;-67
2022/07/29 00:57:24;;;;;;;3.75;2.05;;;;;;;17.08;63.79;101595.31;5038413;28;20024;-67
2022/07/29 00:59:49;;;;;;;2.20;1.60;;;;;;;17.02;64.23;101600.44;5042148;28;20049;-66
2022/07/29 01:02:14;;;;;;;8.20;2.00;;;;;;;17.01;64.01;101602.34;5042748;28;20428;-67
2022/07/29 01:04:40;;;;;;;4.60;1.50;;;;;;;16.97;64.37;101611.88;5045036;28;20033;-69
2022/07/29 01:07:06;;;;;;;3.35;1.80;;;;;;;16.86;63.87;101584.44;5047516;28;20032;-68
2022/07/29 01:09:33;;;;;;;3.55;1.88;;;;;;;16.73;66.77;101578.25;5048211;28;20083;-68
2022/07/29 01:11:59;;;;;;;5.63;1.80;;;;;;;16.62;67.28;101576.41;5046082;28;20060;-68
2022/07/29 01:14:26;;;;;;;9.00;2.00;;;;;;;16.55;66.55;101567.84;5045605;28;20041;-68
2022/07/29 01:17:01;;;;;;;4.55;2.00;;;;;;;16.52;64.56;101554.38;5046277;28;20029;-71
2022/07/29 01:19:49;;;;;;;5.32;2.25;;;;;;;16.46;64.92;101540.28;5057186;28;20047;-66
2022/07/29 01:22:41;;;;;;;3.08;1.83;;;;;;;16.40;65.05;101533.44;5043793;28;20049;-67
2022/07/29 01:25:26;;;;;;;5.97;2.10;;;;;;;16.45;66.02;101535.78;5044263;28;20102;-67
2022/07/29 01:28:00;;;;;;;3.38;2.03;;;;;;;16.46;66.71;101535.69;5042034;28;20041;-68
2022/07/29 01:30:32;;;;;;;5.85;1.77;;;;;;;16.42;65.20;101527.84;5027928;28;20139;-69
2022/07/29 01:33:01;;;;;;;3.47;1.90;;;;;;;16.40;65.44;101518.84;5027925;28;20033;-69
2022/07/29 01:35:33;;;;;;;5.88;2.28;;;;;;;16.34;65.68;101509.25;5047476;28;20029;-67
2022/07/29 01:38:13;;;;;;;3.58;2.03;;;;;;;16.30;65.63;101494.06;5048110;28;20128;-68
2022/07/29 01:40:46;;;;;;;3.22;1.88;;;;;;;16.26;65.40;101487.94;5035882;28;20537;-68
2022/07/29 01:43:14;;;;;;;;;;;;;;;16.36;64.21;101481.66;5040979;28;20068;-67
2022/07/29 01:46:11;;;;;;;2.28;1.88;;;;;;;16.37;65.67;101492.53;5026709;28;20388;-67
2022/07/29 01:48:45;;;;;;;5.93;2.15;;;;;;;16.36;66.31;101493.50;5034059;28;20048;-68
2022/07/29 01:51:19;;;;;;;3.55;2.00;;;;;;;16.36;66.95;101489.91;5046571;28;20037;-69
2022/07/29 01:53:57;;;;;;;7.38;2.45;;;;;;;16.28;65.37;101483.22;5045319;28;20072;-68
2022/07/29 01:56:24;;;;;;;5.07;2.35;;;;;;;16.20;67.29;101476.63;5047355;28;20091;-66
2022/07/29 01:58:51;;;;;;;12.02;2.60;;;;;;;16.17;65.97;101480.50;5042609;28;20037;-67
2022/07/29 02:01:18;;;;;;;12.40;2.10;;;;;;;16.14;65.96;101480.78;5045334;28;20108;-67
2022/07/29 02:03:45;;;;;;;4.30;2.53;;;;;;;16.14;65.69;101480.78;5043044;28;20044;-68
2022/07/29 02:06:15;;;;;;;6.00;2.25;;;;;;;16.16;65.70;101481.50;5045936;28;20574;-67
2022/07/29 02:08:42;;;;;;;4.45;2.20;;;;;;;16.21;66.33;101492.97;5044396;28;20041;-65
2022/07/29 02:11:08;;;;;;;3.30;2.22;;;;;;;16.24;66.63;101489.09;5042086;28;20065;-66
2022/07/29 02:13:36;;;;;;;6.30;2.72;;;;;;;16.27;66.71;101488.81;5042192;28;20060;-68
2022/07/29 02:16:05;;;;;;;6.22;2.53;;;;;;;16.25;66.14;101480.72;5033533;28;20448;-67
2022/07/29 02:18:32;;;;;;;5.10;2.97;;;;;;;16.13;67.87;101473.53;5026931;28;20037;-68
2022/07/29 02:21:00;;;;;;;6.00;2.58;;;;;;;16.07;68.00;101463.09;5042104;28;20021;-66
2022/07/29 02:23:26;;;;;;;6.20;2.78;;;;;;;16.06;67.43;101469.59;5027549;28;20112;-66
2022/07/29 02:25:55;;;;;;;4.60;2.15;;;;;;;16.11;68.53;101481.03;5027436;28;20038;-67
2022/07/29 02:28:24;;;;;;;5.43;2.58;;;;;;;16.12;68.74;101481.91;5042806;28;20256;-69
2022/07/29 02:30:52;;;;;;;4.10;3.13;;;;;;;16.11;68.25;101477.44;5026534;28;20087;-67
2022/07/29 02:33:19;;;;;;;3.50;2.45;;;;;;;16.12;67.95;101477.28;5025847;28;20083;-66
2022/07/29 02:35:46;;;;;;;5.18;2.45;;;;;;;16.13;68.72;101479.03;5025980;28;20040;-67
2022/07/29 02:41:01;;;;;;;5.07;2.40;;;;;;;16.04;68.90;101471.56;5025544;28;20041;-67
2022/07/29 02:43:27;;;;;;;4.72;2.10;;;;;;;15.99;68.75;101482.97;5041967;28;20428;-66
2022/07/29 02:45:55;;;;;;;3.63;2.55;;;;;;;15.97;68.82;101475.84;5026926;28;20178;-67
2022/07/29 02:48:32;;;;;;;7.85;2.50;;;;;;;15.97;69.47;101475.84;5030283;28;20026;-66
2022/07/29 02:51:06;;;;;;;4.30;2.70;;;;;;;15.89;68.70;101460.03;5026119;28;20112;-66
2022/07/29 02:53:33;;;;;;;3.65;2.35;;;;;;;15.92;69.27;101467.16;5026635;28;20029;-68
2022/07/29 02:56:04;;;;;;;4.20;2.30;;;;;;;15.87;69.18;101470.28;5026798;28;20033;-68
2022/07/29 02:58:37;;;;;;;6.85;2.88;;;;;;;15.87;68.89;101466.66;5026581;28;20035;-67
2022/07/29 03:01:09;;;;;;;5.47;2.42;;;;;;;15.89;69.30;101471.00;5025121;28;20065;-66
2022/07/29 03:03:38;;;;;;;3.60;2.28;;;;;;;15.90;70.38;101477.38;5026302;28;20418;-68
2022/07/29 03:06:05;;;;;;;4.40;2.40;;;;;;;15.88;70.33;101484.88;5025882;28;20441;-69
2022/07/29 03:08:32;;;;;;;2.63;2.30;;;;;;;15.88;70.10;101487.63;5042020;28;20041;-68
2022/07/29 03:10:58;;;;;;;4.40;2.58;;;;;;;15.85;70.75;101490.59;5024640;28;20037;-67
2022/07/29 03:13:24;;;;;;;6.00;2.72;;;;;;;15.80;71.71;101478.16;5039504;28;20044;-69
2022/07/29 03:15:51;;;;;;;3.78;2.50;;;;;;;15.77;71.53;101485.78;5043004;28;20025;-68
2022/07/29 03:18:17;;;;;;;4.93;2.83;;;;;;;15.78;71.39;101484.78;5034552;28;20532;-69
2022/07/29 03:20:43;;;;;;;4.30;2.22;;;;;;;15.76;71.95;101495.91;5025244;28;20452;-69
2022/07/29 03:23:08;;;;;;;4.22;2.05;;;;;;;15.73;71.88;101490.66;5026393;28;20025;-69
2022/07/29 03:25:34;;;;;;;5.95;2.28;;;;;;;15.70;71.49;101477.19;5026333;28;20123;-68
2022/07/29 03:27:59;;;;;;;3.80;2.28;;;;;;;15.68;71.87;101478.31;5041144;28;20030;-66
2022/07/29 03:30:25;;;;;;;6.35;2.33;;;;;;;15.71;71.23;101487.16;5025166;28;20053;-67
2022/07/29 03:32:51;;;;;;;4.47;2.53;;;;;;;15.78;71.24;101488.38;5025783;28;20500;-66
2022/07/29 03:35:16;;;;;;;3.88;2.20;;;;;;;15.78;70.65;101482.03;5043982;28;20441;-66
2022/07/29 03:37:43;;;;;;;3.25;2.45;;;;;;;15.79;70.15;101478.28;5045781;28;20087;-66
2022/07/29 03:40:11;;;;;;;7.20;2.47;;;;;;;15.71;70.43;101480.78;5046294;28;20064;-67
2022/07/29 03:42:39;;;;;;;7.15;2.67;;;;;;;15.60;70.43;101476.19;5041471;28;20033;-66
2022/07/29 03:45:12;;;;;;;4.47;2.17;;;;;;;15.58;69.16;101478.19;5037958;28;20044;-70
2022/07/29 03:47:44;;;;;;;4.10;2.40;;;;;;;15.57;68.62;101477.31;5032088;28;20140;-68
2022/07/29 03:50:14;;;;;;;4.55;2.60;;;;;;;15.60;70.07;101481.66;5032020;28;20342;-67
2022/07/29 03:52:40;;;;;;;5.57;2.25;;;;;;;15.61;70.09;101479.78;5032329;28;20448;-67
2022/07/29 03:55:07;;;;;;;4.30;2.38;;;;;;;15.57;70.90;101488.31;5033439;28;20026;-69
2022/07/29 03:57:34;;;;;;;4.32;2.10;;;;;;;15.54;70.06;101480.31;5032388;28;20120;-66
2022/07/29 04:00:02;;;;;;;5.28;2.45;;;;;;;15.50;70.52;101476.06;5030779;28;20037;-69
2022/07/29 04:02:30;;;;;;;4.55;2.20;;;;;;;15.48;71.24;101479.94;5032833;28;20841;-68
2022/07/29 04:04:55;;;;;;;3.63;2.05;;;;;;;15.44;71.20;101473.00;5031803;28;20052;-67
2022/07/29 04:07:21;;;;;;;4.30;2.22;;;;;;;15.42;70.42;101470.34;5032650;28;20033;-66
2022/07/29 04:09:46;;;;;;;5.72;2.58;;;;;;;15.44;70.70;101468.38;5032223;28;20116;-67
2022/07/29 04:12:11;;;;;;;4.80;2.30;;;;;;;15.44;70.42;101471.13;5034153;28;20029;-68
2022/07/29 04:14:37;;;;;;;3.78;2.67;;;;;;;15.38;71.08;101476.22;5032060;28;20087;-66
2022/07/29 04:17:04;;;;;;;5.28;2.38;;;;;;;15.38;70.90;101471.59;5031601;28;20452;-68
2022/07/29 04:19:30;;;;;;;4.15;2.13;;;;;;;15.39;70.95;101466.97;5031288;28;20544;-69
2022/07/29 04:21:57;;;;;;;6.20;2.50;;;;;;;15.37;70.84;101467.13;5032388;28;20349;-68
2022/07/29 04:24:22;;;;;;;5.88;2.50;;;;;;;15.40;70.93;101468.75;5032758;28;20372;-67
2022/07/29 04:26:48;;;;;;;4.18;2.53;;;;;;;15.38;71.34;101468.84;5032548;28;20076;-68
2022/07/29 04:29:14;;;;;;;4.43;3.38;;;;;;;15.28;72.33;101465.13;5032305;28;20389;-70
2022/07/29 04:31:40;;;;;;;7.15;3.15;;;;;;;15.16;72.48;101452.47;5036880;28;20458;-68
2022/07/29 04:34:05;;;;;;;3.50;2.60;;;;;;;15.10;72.69;101466.66;5031282;28;20032;-67
2022/07/29 04:36:31;;;;;;;5.88;2.65;;;;;;;15.04;72.86;101471.63;5030252;28;20041;-68
2022/07/29 04:38:56;;;;;;;6.32;2.90;;;;;;;15.04;73.33;101477.13;5032648;28;20060;-69
2022/07/29 04:41:22;;;;;;;9.05;3.00;;;;;;;15.01;73.50;101479.22;5033152;28;20038;-66
2022/07/29 04:43:47;;;;;;;4.88;3.00;;;;;;;15.01;73.71;101490.19;5050120;28;20045;-67
2022/07/29 04:46:12;;;;;;;8.02;3.30;;;;;;;14.92;74.67;101489.09;5031820;28;20025;-67
2022/07/29 04:48:38;;;;;;;5.00;2.95;;;;;;;14.95;74.36;101493.44;5034997;28;20068;-67
2022/07/29 04:51:03;;;;;;;6.78;3.17;;;;;;;15.00;73.86;101497.53;5031232;28;20056;-67
2022/07/29 04:53:29;;;;;;;6.95;3.28;;;;;;;15.06;74.57;101487.94;5035201;28;20020;-67
2022/07/29 04:55:54;;;;;;;6.88;3.45;;;;;;;15.05;74.95;101488.94;5038535;28;20389;-67
2022/07/29 04:58:19;;;;;;;8.70;3.22;;;;;;;15.04;74.76;101479.84;5029174;28;20022;-68
2022/07/29 05:00:45;;;;;;;5.90;3.20;;;;;;;15.10;74.04;101492.19;5026718;28;20033;-67
2022/07/29 05:03:10;;;;;;;5.38;3.20;;;;;;;15.18;73.77;101500.66;5028303;28;20044;-66
2022/07/29 05:05:36;;;;;;;4.70;3.20;;;;;;;15.25;73.26;101521.13;5027744;28;20126;-66
2022/07/29 05:08:01;;;;;;;3.83;2.83;;;;;;;15.31;73.00;101531.56;5037400;28;20432;-66
2022/07/29 05:10:27;;;;;;;4.75;3.22;;;;;;;15.34;74.53;101527.72;5048154;28;20353;-67
2022/07/29 05:12:53;;;;;;;4.90;3.72;;;;;;;15.25;74.29;101523.84;5046882;28;20040;-66
2022/07/29 05:15:18;;;;;;;7.13;4.05;;;;;;;15.16;74.20;101529.22;5039395;28;20045;-67
2022/07/29 05:17:44;;;;;;;5.60;3.72;;;;;;;15.16;73.89;101527.34;5027480;28;20591;-67
2022/07/29 05:20:09;;;;;;;5.85;3.70;;;;;;;15.17;74.16;101534.56;5029039;28;20523;-66
2022/07/29 05:22:35;;;;;;;6.55;3.80;;;;;;;15.19;73.43;101526.19;5028066;28;20031;-67
2022/07/29 05:25:00;;;;;;;9.88;3.55;;;;;;;15.27;74.60;101534.69;5028344;28;20049;-66
2022/07/29 05:27:25;;;;;;;8.70;3.95;;;;;;;15.27;74.65;101530.06;5028720;28;20104;-66
2022/07/29 05:29:51;;;;;;;7.40;4.70;;;;;;;15.27;73.70;101531.94;5028049;28;20040;-68
2022/07/29 05:32:16;;;;;;;6.22;3.90;;;;;;;15.28;74.04;101530.94;5038942;28;20029;-67
2022/07/29 05:34:42;;;;;;;5.25;3.40;;;;;;;15.34;74.13;101533.19;5041501;28;20451;-68
2022/07/29 05:37:07;;;;;;;5.65;3.30;;;;;;;15.38;74.91;101531.94;5045956;28;21492;-66
2022/07/29 05:39:33;;;;;;;5.80;4.07;;;;;;;15.39;74.13;101525.47;5045816;28;20033;-67
2022/07/29 05:41:58;;;;;;;6.32;3.70;;;;;;;15.48;74.21;101523.81;5044469;28;20110;-69
2022/07/29 05:44:23;;;;;;;8.52;4.50;;;;;;;15.56;73.23;101530.41;5040720;28;20124;-68
2022/07/29 05:46:49;;;;;;;8.90;4.38;;;;;;;15.63;73.39;101527.19;5044716;28;20033;-67
2022/07/29 05:49:14;;;;;;;8.88;4.60;;;;;;;15.66;74.12;101538.78;5039551;28;20033;-67
2022/07/29 05:51:40;;;;;;;7.18;4.28;;;;;;;15.72;72.63;101542.91;5045648;28;20480;-70
2022/07/29 05:54:05;;;;;;;8.95;4.43;;;;;;;15.79;73.36;101541.38;5037405;28;20029;-67
2022/07/29 05:56:31;;;;;;;9.80;4.78;;;;;;;15.79;73.35;101541.38;5031530;28;20098;-69
2022/07/29 05:58:56;;;;;;;6.10;3.83;;;;;;;15.85;72.56;101537.25;5041006;28;20137;-68
2022/07/29 06:01:21;;;;;;;6.55;4.35;;;;;;;15.94;73.21;101522.75;5038549;28;20044;-69
2022/07/29 06:03:47;;;;;;;5.82;4.30;;;;;;;15.97;72.01;101528.88;5040864;28;20484;-67
2022/07/29 06:06:12;;;;;;;11.18;4.60;;;;;;;16.00;72.42;101530.50;5042869;28;20047;-66
2022/07/29 06:08:38;;;;;;;10.25;4.78;;;;;;;16.10;71.61;101534.22;5035712;28;20042;-67
2022/07/29 06:11:04;;;;;;;7.65;4.88;;;;;;;16.21;72.03;101530.53;5040195;28;20025;-66
2022/07/29 06:13:30;;;;;;;9.63;4.53;;;;;;;16.20;72.02;101531.53;5042417;28;20049;-68
2022/07/29 06:15:56;;;;;;;11.73;4.60;;;;;;;16.24;71.63;101533.03;5038999;28;20029;-67
2022/07/29 06:18:23;;;;;;;8.68;4.50;;;;;;;16.22;70.92;101541.38;5041069;28;20049;-67
2022/07/29 06:20:50;;;;;;;6.40;4.50;;;;;;;16.22;72.10;101538.63;5042522;28;20048;-67
2022/07/29 06:23:16;;;;;;;7.05;4.38;;;;;;;16.19;71.10;101540.78;5037224;28;20067;-68
2022/07/29 06:25:41;;;;;;;9.00;4.53;;;;;;;16.13;71.08;101533.91;5043782;28;20405;-67
2022/07/29 06:28:06;;;;;;;5.90;5.00;;;;;;;16.11;71.39;101541.44;5031926;28;20053;-67
2022/07/29 06:30:32;;;;;;;8.52;4.55;;;;;;;16.13;71.72;101538.53;5030651;28;20049;-67
2022/07/29 06:32:57;;;;;;;10.00;5.63;;;;;;;16.11;72.32;101540.56;5037197;28;20048;-66
2022/07/29 06:35:23;;;;;;;5.63;4.60;;;;;;;16.17;71.41;101520.81;5044028;28;20017;-66
2022/07/29 06:37:48;;;;;;;7.95;5.30;;;;;;;16.20;71.55;101534.28;5043768;28;20045;-68
2022/07/29 06:42:58;;;;;;;10.52;4.60;;;;;;;16.30;70.76;101538.84;5037965;28;20384;-70
2022/07/29 06:45:24;;;;;;;8.30;4.47;;;;;;;16.45;71.21;101542.16;5039663;28;20040;-67
2022/07/29 06:47:49;;;;;;;6.15;4.30;;;;;;;16.57;71.14;101540.25;5030687;28;20045;-68
2022/07/29 06:50:15;;;;;;;7.88;4.32;;;;;;;16.75;70.01;101535.91;5029387;28;20030;-69
2022/07/29 06:52:41;;;;;;;8.05;4.53;;;;;;;16.82;69.72;101544.47;5040032;28;20116;-70
2022/07/29 06:55:07;;;;;;;7.55;4.63;;;;;;;16.81;68.53;101548.25;5034777;28;20102;-69
2022/07/29 06:57:33;;;;;;;10.43;3.97;;;;;;;16.85;69.21;101546.97;5035067;28;20686;-68
2022/07/29 06:59:58;;;;;;;8.60;4.53;;;;;;;16.86;69.02;101550.59;5035301;28;20059;-68
2022/07/29 07:02:24;;;;;;;6.82;4.22;;;;;;;16.75;68.86;101548.78;5038197;28;20044;-66
2022/07/29 07:04:49;;;;;;;9.50;4.72;;;;;;;16.66;69.37;101555.06;5024236;28;20060;-67
2022/07/29 07:07:15;;;;;;;10.25;4.88;;;;;;;16.66;69.29;101558.66;5032052;28;20541;-68
2022/07/29 07:09:40;;;;;;;7.25;4.72;;;;;;;16.68;69.27;101559.41;5038567;28;20102;-67
2022/07/29 07:12:06;;;;;;;7.28;4.80;;;;;;;16.75;70.10;101560.66;5028987;28;20074;-68
2022/07/29 07:14:31;;;;;;;11.45;4.13;;;;;;;16.75;69.32;101551.53;5028304;28;20077;-70
2022/07/29 07:16:57;;;;;;;5.10;3.95;;;;;;;16.75;69.44;101563.41;5037984;28;20103;-67
2022/07/29 07:19:22;;;;;;;5.97;3.90;;;;;;;16.82;69.13;101563.72;5027710;28;20044;-67
2022/07/29 07:21:48;;;;;;;7.43;4.25;;;;;;;16.91;69.09;101556.56;5033065;28;20045;-67
2022/07/29 07:24:13;;;;;;;7.40;4.30;;;;;;;17.05;69.08;101564.44;5032159;28;20780;-69
2022/07/29 07:26:39;;;;;;;9.30;4.72;;;;;;;17.12;70.37;101557.41;5031733;28;20083;-68
2022/07/29 07:29:05;;;;;;;8.48;4.55;;;;;;;17.23;68.26;101564.69;5029523;28;20115;-66
2022/07/29 07:31:31;;;;;;;12.80;4.93;;;;;;;17.30;68.57;101557.66;5031759;28;20033;-70
2022/07/29 07:33:57;;;;;;;8.50;4.70;;;;;;;17.50;67.07;101559.47;5034167;28;20032;-69
2022/07/29 07:36:23;;;;;;;7.15;4.78;;;;;;;17.75;67.46;101560.91;5031959;28;20039;-69
2022/07/29 07:38:48;;;;;;;6.03;5.05;;;;;;;17.95;66.03;101552.69;5037044;28;20496;-69
2022/07/29 07:41:14;;;;;;;5.97;4.45;;;;;;;18.05;66.26;101554.47;5042260;28;20029;-68
2022/07/29 07:43:39;;;;;;;7.22;5.05;;;;;;;18.03;64.69;101548.22;5039807;28;20025;-69
2022/07/29 07:46:05;;;;;;;7.95;4.47;;;;;;;17.95;65.13;101552.69;5034476;28;20497;-66
2022/07/29 07:48:30;;;;;;;6.65;3.92;;;;;;;17.93;66.24;101558.34;5034020;28;20587;-70
2022/07/29 07:50:56;;;;;;;6.00;3.88;;;;;;;18.06;66.16;101556.19;5031864;28;20045;-66
2022/07/29 07:53:21;;;;;;;9.98;5.03;;;;;;;18.08;65.58;101562.41;5034238;28;20037;-67
2022/07/29 07:55:47;;;;;;;7.57;4.32;;;;;;;18.12;66.25;101563.00;5030898;28;20049;-67
2022/07/29 07:58:12;;;;;;;7.70;4.85;;;;;;;18.14;65.69;101563.75;5043415;28;20116;-67
2022/07/29 08:00:37;;;;;;;8.07;5.03;;;;;;;18.09;67.08;101560.53;5037014;28;20074;-67
2022/07/29 08:03:03;;;;;;;7.18;4.47;;;;;;;18.20;66.80;101568.69;5037416;28;20033;-69
2022/07/29 08:05:28;;;;;;;7.78;4.57;;;;;;;18.42;65.67;101566.66;5027363;28;20382;-68
2022/07/29 08:07:54;;;;;;;10.55;5.32;;;;;;;18.53;65.57;101566.53;5025200;28;20477;-68
2022/07/29 08:13:08;;;;;;;7.70;4.55;;;;;;;19.50;63.53;101566.34;5036700;28;20060;-68
2022/07/29 08:15:34;;;;;;;8.13;4.25;;;;;;;20.19;61.07;101567.72;5038543;28;20114;-68
2022/07/29 08:18:00;;;;;;;9.73;4.72;;;;;;;20.50;60.16;101568.25;5036218;28;20124;-68
2022/07/29 08:20:26;;;;;;;7.22;4.40;;;;;;;21.12;59.61;101581.06;5026560;28;20126;-67
2022/07/29 08:22:52;;;;;;;10.57;4.82;;;;;;;21.50;56.98;101566.97;5034746;28;20789;-66
2022/07/29 08:25:20;;;;;;;8.75;4.25;;;;;;;22.11;55.73;101563.97;5025864;28;20174;-68
2022/07/29 08:27:48;;;;;;;9.05;4.57;;;;;;;22.62;55.90;101564.75;5025197;28;20128;-66
2022/07/29 08:30:14;;;;;;;6.45;4.30;;;;;;;22.71;53.22;101567.50;5035434;28;20028;-69
2022/07/29 08:32:39;;;;;;;6.47;4.00;;;;;;;23.18;53.90;101567.72;5042596;28;20021;-68
2022/07/29 08:35:05;;;;;;;5.68;3.60;;;;;;;23.64;52.42;101568.84;5043089;28;20049;-68
2022/07/29 08:37:30;;;;;;;5.03;4.03;;;;;;;24.00;51.89;101564.66;5028613;28;20561;-66
2022/07/29 08:39:57;;;;;;;6.38;4.82;;;;;;;24.05;50.49;101574.19;5036506;28;20051;-69
2022/07/29 08:42:22;;;;;;;7.90;4.53;;;;;;;23.99;50.38;101574.94;5049361;28;20033;-68
2022/07/29 08:44:48;;;;;;;6.75;4.20;;;;;;;24.04;49.19;101575.25;5030703;28;20042;-67
2022/07/29 08:47:15;;;;;;;6.63;3.80;;;;;;;24.49;50.36;101578.31;5028576;28;20489;-71
2022/07/29 08:49:40;;;;;;;6.90;4.35;;;;;;;24.49;47.23;101579.19;5027959;28;20029;-67
2022/07/29 08:52:06;;;;;;;10.10;4.22;;;;;;;24.60;48.89;101577.88;5046316;28;20040;-67
2022/07/29 08:54:32;;;;;;;6.05;4.10;;;;;;;24.99;48.50;101568.50;5033999;28;20524;-66
2022/07/29 08:56:59;;;;;;;10.18;3.83;;;;;;;25.52;48.26;101572.19;5029621;28;20433;-67
2022/07/29 08:59:27;;;;;;;9.43;4.20;;;;;;;25.79;48.76;101573.47;5029671;28;20029;-69
2022/07/29 09:01:53;;;;;;;4.50;4.10;;;;;;;25.87;46.47;101568.63;5034564;28;20485;-66
2022/07/29 09:04:19;;;;;;;11.07;3.88;;;;;;;26.31;47.98;101567.69;5039326;28;20624;-68
2022/07/29 09:06:49;;;;;;;8.57;4.10;;;;;;;26.47;46.97;101562.94;5032640;28;20033;-70
2022/07/29 09:09:15;;;;;;;4.97;3.92;;;;;;;26.41;44.67;101570.16;5031900;28;20044;-67
2022/07/29 09:11:41;;;;;;;7.97;3.92;;;;;;;26.65;45.61;101566.16;5029031;28;20029;-67
2022/07/29 09:14:07;;;;;;;6.40;3.45;;;;;;;26.76;44.93;101564.72;5029769;28;20041;-68
2022/07/29 09:16:52;;;;;;;5.00;4.05;;;;;;;26.83;45.96;101569.31;5045062;28;20746;-68
2022/07/29 09:19:28;;;;;;;4.78;3.85;;;;;;;26.68;42.26;101563.81;5026917;28;20045;-69
2022/07/29 09:21:57;;;;;;;7.78;4.00;;;;;;;26.89;45.09;101567.66;5036220;28;20030;-65
2022/07/29 09:24:23;;;;;;;7.80;3.67;;;;;;;27.32;44.78;101564.81;5038587;28;20119;-67
2022/07/29 09:26:48;;;;;;;7.10;4.03;;;;;;;27.36;42.28;101567.00;5031657;28;20385;-67
2022/07/29 09:29:24;;;;;;;5.43;3.40;;;;;;;27.12;44.01;101565.53;5039072;28;20041;-68
2022/07/29 09:31:52;;;;;;;7.82;3.10;;;;;;;27.35;42.90;101565.28;5044333;28;20120;-69
2022/07/29 09:34:24;;;;;;;8.20;3.75;;;;;;;27.41;41.44;101578.41;5036551;28;20086;-67
2022/07/29 09:36:50;;;;;;;;;;;;;;;27.73;45.42;101572.41;5035455;28;20037;-66
2022/07/29 09:39:26;;;;;;;5.20;3.50;;;;;;;27.51;41.45;101575.25;5033464;28;19920;-68
2022/07/29 09:41:54;;;;;;;7.20;3.20;;;;;;;27.59;42.61;101572.31;5036424;28;20426;-66
2022/07/29 09:44:20;;;;;;;8.63;3.45;;;;;;;27.79;41.25;101583.63;5038768;28;20644;-66
2022/07/29 09:47:06;;;;;;;5.47;3.35;;;;;;;27.86;42.77;101580.88;5040787;28;20072;-67
2022/07/29 09:49:49;;;;;;;3.78;2.72;;;;;;;27.97;40.44;101575.53;5043155;28;20067;-66
2022/07/29 09:52:15;;;;;;;10.85;3.17;;;;;;;28.26;40.54;101572.63;5046482;28;20029;-67
2022/07/29 09:54:41;;;;;;;5.80;3.00;;;;;;;28.26;39.44;101578.25;5044098;28;20047;-65
2022/07/29 09:57:12;;;;;;;5.63;2.90;;;;;;;28.28;39.08;101573.31;5045902;28;20079;-67
2022/07/29 09:59:38;;;;;;;5.35;3.03;;;;;;;28.46;40.91;101568.88;5038349;28;20033;-68
2022/07/29 10:02:13;;;;;;;14.13;4.57;;;;;;;28.28;38.95;101570.50;5039066;28;20033;-67
2022/07/29 10:04:40;;;;;;;10.13;2.85;;;;;;;28.40;39.81;101572.53;5041546;28;20047;-67
2022/07/29 10:07:06;;;;;;;5.40;2.67;;;;;;;28.58;39.31;101571.03;5047124;28;20492;-67
2022/07/29 10:09:33;;;;;;;10.70;3.40;;;;;;;28.51;37.35;101570.19;5036740;28;20064;-67
2022/07/29 10:12:15;;;;;;;9.70;4.18;;;;;;;28.79;39.50;101564.41;5038376;28;20560;-68
2022/07/29 10:14:42;;;;;;;4.38;3.03;;;;;;;28.30;35.96;101573.94;5040519;28;20090;-67
2022/07/29 10:17:09;;;;;;;9.05;3.33;;;;;;;28.01;39.54;101567.59;5034669;28;20037;-69
2022/07/29 10:19:36;;;;;;;5.47;3.60;;;;;;;27.59;38.26;101569.50;5027535;28;20049;-68
2022/07/29 10:22:06;;;;;;;8.75;3.53;;;;;;;27.23;37.53;101563.22;5041808;28;20037;-68
2022/07/29 10:24:32;;;;;;;5.40;3.63;;;;;;;27.09;41.01;101562.25;5044976;28;20036;-65
2022/07/29 10:27:02;;;;;;;6.43;3.33;;;;;;;27.51;39.21;101564.06;5047832;28;20025;-68
2022/07/29 10:29:28;;;;;;;8.73;3.17;;;;;;;27.99;38.14;101564.16;5036086;28;20028;-67
2022/07/29 10:32:24;;;;;;;6.72;3.13;;;;;;;28.11;40.08;101565.28;5039114;28;20083;-65
2022/07/29 10:35:01;;;;;;;9.15;3.22;;;;;;;28.36;38.51;101567.56;5028561;28;20041;-67
2022/07/29 10:38:00;;;;;;;5.38;3.75;;;;;;;28.18;37.83;101566.19;5038751;28;20927;-67
2022/07/29 10:43:35;;;;;;;8.98;3.20;;;;;;;28.09;39.38;101558.19;5041700;28;20053;-66
2022/07/29 10:46:01;;;;;;;6.90;3.20;;;;;;;28.57;37.52;101558.13;5039104;28;20033;-68
2022/07/29 10:48:27;;;;;;;6.10;3.75;;;;;;;28.68;37.86;101561.16;5040748;28;20032;-68
2022/07/29 10:51:00;;;;;;;9.35;3.10;;;;;;;28.85;38.28;101549.53;5038466;28;20086;-67
2022/07/29 10:53:51;;;;;;;4.65;3.05;;;;;;;29.23;37.98;101561.84;5043749;28;20041;-67
2022/07/29 10:56:42;;;;;;;4.78;2.88;;;;;;;29.61;37.88;101549.06;5034804;28;20110;-67
2022/07/29 10:59:20;;;;;;;5.00;2.88;;;;;;;29.53;36.92;101552.09;5025145;28;20099;-67
2022/07/29 11:01:49;;;;;;;7.68;2.80;;;;;;;29.20;35.54;101550.22;5035836;28;20044;-67
2022/07/29 11:04:16;;;;;;;9.38;3.28;;;;;;;29.01;33.88;101548.31;5028319;28;20088;-68
2022/07/29 11:07:00;;;;;;;4.55;2.60;;;;;;;29.40;37.13;101555.78;5034397;28;20091;-67
2022/07/29 11:09:25;;;;;;;7.68;3.00;;;;;;;29.53;34.89;101552.09;5041287;28;20100;-67
2022/07/29 11:11:51;;;;;;;6.63;3.58;;;;;;;29.14;34.26;101557.53;5040876;28;20144;-65
2022/07/29 11:14:18;;;;;;;8.23;3.47;;;;;;;29.67;35.75;101545.41;5029966;28;20041;-66
2022/07/29 11:17:06;;;;;;;8.57;3.25;;;;;;;29.78;35.82;101553.13;5033543;28;20035;-65
2022/07/29 11:19:32;;;;;;;5.45;3.22;;;;;;;29.18;33.48;101550.41;5025840;28;20040;-66
2022/07/29 11:21:58;;;;;;;21.73;3.65;;;;;;;29.03;33.67;101544.19;5030480;28;20107;-67
2022/07/29 11:24:31;;;;;;;6.82;3.17;;;;;;;28.66;34.45;101546.50;5036150;28;20079;-67
2022/07/29 11:27:15;;;;;;;5.78;3.90;;;;;;;28.08;35.89;101545.28;5029531;28;20107;-66
2022/07/29 11:30:01;;;;;;;4.30;3.05;;;;;;;28.07;37.23;101550.00;5036844;28;20765;-66
2022/07/29 11:32:42;;;;;;;5.95;3.38;;;;;;;28.27;37.03;101543.59;5031769;28;20029;-68
2022/07/29 11:35:21;;;;;;;6.32;3.65;;;;;;;28.17;35.99;101546.81;5046010;28;20046;-66
2022/07/29 11:38:22;;;;;;;5.50;3.22;;;;;;;28.13;36.45;101545.50;5053646;28;20041;-66
2022/07/29 11:41:13;;;;;;;5.18;2.70;;;;;;;28.76;38.40;101543.28;5045557;28;20409;-66
2022/07/29 11:43:54;;;;;;;5.97;3.00;;;;;;;29.34;38.54;101551.06;5041458;28;20036;-66